Time;durP1;ratioP1;P1;durP2;ratioP2;P2;SDS_P1;SDS_P2;PMS_P1;PMS_P2;Temp;Humidity;BMP_temperature;BMP_pressure;BME280_temperature;BME280_humidity;BME280_pressure;Samples;Min_cycle;Max_cycle;Signal;HPM_P1;HPM_P2
2021/10/16 00:00:58;;;;;;;11.82;4.95;;;;;;;4.65;97.40;101754.56;5058536;28;20098;-82
2021/10/16 00:03:24;;;;;;;11.32;4.75;;;;;;;4.65;98.02;101753.72;5063054;28;20067;-82
2021/10/16 00:05:49;;;;;;;9.48;4.82;;;;;;;4.63;97.69;101756.50;5063769;28;20044;-85
2021/10/16 00:08:15;;;;;;;11.15;4.47;;;;;;;4.62;97.61;101752.09;5071900;28;20045;-88
2021/10/16 00:10:40;;;;;;;11.82;4.90;;;;;;;4.55;97.60;101761.44;5031337;28;20037;-85
2021/10/16 00:13:06;;;;;;;8.18;4.55;;;;;;;4.51;97.78;101759.94;5041594;28;20037;-87
2021/10/16 00:15:32;;;;;;;9.93;4.60;;;;;;;4.52;97.87;101761.66;5043769;28;20505;-83
2021/10/16 00:17:57;;;;;;;9.85;4.72;;;;;;;4.51;97.81;101759.94;5038639;28;20045;-83
2021/10/16 00:20:23;;;;;;;8.50;4.30;;;;;;;4.49;97.80;101764.53;5040108;28;20052;-85
2021/10/16 00:22:49;;;;;;;6.88;4.35;;;;;;;4.46;97.81;101762.03;5030965;28;20440;-84
2021/10/16 00:25:14;;;;;;;12.20;4.93;;;;;;;4.44;97.76;101758.66;5026912;28;20383;-87
2021/10/16 00:27:40;;;;;;;8.80;4.75;;;;;;;4.41;97.85;101762.34;5036621;28;20401;-84
2021/10/16 00:30:06;;;;;;;8.20;4.78;;;;;;;4.41;97.77;101766.81;5039252;28;20045;-85
2021/10/16 00:32:31;;;;;;;7.78;4.40;;;;;;;4.39;97.94;101758.94;5035145;28;20401;-87
2021/10/16 00:34:56;;;;;;;7.97;4.35;;;;;;;4.36;97.86;101759.16;5039089;28;20047;-86
2021/10/16 00:37:24;;;;;;;6.63;3.95;;;;;;;4.34;97.79;101760.19;5035560;28;20052;-87
2021/10/16 00:39:54;;;;;;;7.95;4.13;;;;;;;4.33;97.92;101755.84;5032058;28;20049;-84
2021/10/16 00:42:21;;;;;;;10.20;4.40;;;;;;;4.29;97.94;101761.34;5036856;28;20025;-83
2021/10/16 00:44:47;;;;;;;6.55;3.95;;;;;;;4.27;97.88;101760.59;5042297;28;20037;-83
2021/10/16 00:47:12;;;;;;;7.57;4.47;;;;;;;4.24;97.84;101768.75;5058495;28;20050;-85
2021/10/16 00:49:38;;;;;;;9.35;4.53;;;;;;;4.22;97.88;101761.84;5062167;28;20039;-88
2021/10/16 00:52:04;;;;;;;6.85;4.03;;;;;;;4.20;98.04;101761.97;5066944;28;20044;-83
2021/10/16 00:54:30;;;;;;;10.95;4.60;;;;;;;4.19;98.15;101765.56;5057285;28;21897;-84
2021/10/16 00:56:58;;;;;;;10.07;4.30;;;;;;;4.17;97.84;101767.47;5058258;28;20033;-84
2021/10/16 00:59:24;;;;;;;9.23;4.38;;;;;;;4.16;97.99;101765.75;5063000;28;20051;-85
2021/10/16 01:01:49;;;;;;;8.57;3.92;;;;;;;4.16;97.89;101759.59;5059499;28;20037;-83
2021/10/16 01:04:15;;;;;;;11.57;4.07;;;;;;;4.13;98.09;101768.59;5061489;28;20049;-86
2021/10/16 01:06:41;;;;;;;8.13;3.83;;;;;;;4.10;97.82;101763.50;5058029;28;20440;-84
2021/10/16 01:09:09;;;;;;;11.32;3.90;;;;;;;4.10;97.83;101760.00;5037574;28;20044;-83
2021/10/16 01:11:40;;;;;;;10.25;4.20;;;;;;;4.09;98.16;101758.28;5039477;28;20037;-85
2021/10/16 01:14:08;;;;;;;6.57;3.30;;;;;;;4.05;98.13;101757.63;5035795;28;20168;-85
2021/10/16 01:16:35;;;;;;;6.82;3.88;;;;;;;4.04;97.86;101762.09;5035528;28;20048;-84
2021/10/16 01:19:02;;;;;;;10.27;3.85;;;;;;;4.01;98.09;101756.97;5038756;28;20045;-85
2021/10/16 01:21:29;;;;;;;6.53;3.78;;;;;;;4.00;98.32;101755.28;5041977;28;20547;-83
2021/10/16 01:23:57;;;;;;;9.45;4.45;;;;;;;4.01;98.12;101758.78;5066136;28;20090;-86
2021/10/16 01:26:26;;;;;;;8.23;3.58;;;;;;;3.99;98.21;101763.31;5062567;28;20068;-86
2021/10/16 01:28:52;;;;;;;12.73;3.95;;;;;;;3.99;97.96;101763.31;5062082;28;20044;-83
2021/10/16 01:31:18;;;;;;;8.82;3.63;;;;;;;3.98;98.34;101764.28;5059841;28;20214;-87
2021/10/16 01:33:43;;;;;;;9.45;4.20;;;;;;;4.00;98.36;101765.00;5060270;28;20098;-83
2021/10/16 01:36:08;;;;;;;9.43;4.53;;;;;;;4.02;98.69;101755.16;5062949;28;20297;-87
2021/10/16 01:38:34;;;;;;;9.45;3.80;;;;;;;4.00;98.66;101759.72;5056101;28;20072;-84
2021/10/16 01:41:00;;;;;;;6.32;3.38;;;;;;;4.01;98.93;101754.31;5044963;28;20041;-83
2021/10/16 01:43:28;;;;;;;7.95;4.13;;;;;;;4.02;99.18;101755.16;5061481;28;20404;-86
2021/10/16 01:45:54;;;;;;;7.95;3.70;;;;;;;4.04;99.31;101761.22;5081623;28;20047;-81
2021/10/16 01:48:24;;;;;;;8.73;4.40;;;;;;;4.04;99.13;101755.91;5039007;28;20045;-87
2021/10/16 01:50:51;;;;;;;8.25;3.90;;;;;;;4.02;98.96;101749.84;5057884;28;20489;-86
2021/10/16 01:53:18;;;;;;;8.10;3.90;;;;;;;4.00;99.16;101754.41;5061652;28;20126;-85
2021/10/16 01:55:44;;;;;;;10.35;4.60;;;;;;;4.01;99.28;101749.00;5060405;28;20036;-85
2021/10/16 01:58:13;;;;;;;8.27;4.07;;;;;;;4.00;99.17;101752.63;5067042;28;20048;-84
2021/10/16 02:00:39;;;;;;;6.93;3.47;;;;;;;4.00;99.38;101749.09;5043432;28;20120;-83
2021/10/16 02:03:09;;;;;;;7.55;3.53;;;;;;;3.99;99.25;101760.66;5061542;28;20040;-83
2021/10/16 02:05:35;;;;;;;9.00;4.45;;;;;;;3.98;99.14;101753.66;5065025;28;20508;-85
2021/10/16 02:08:01;;;;;;;6.82;3.35;;;;;;;3.95;98.85;101749.41;5061936;28;20063;-86
2021/10/16 02:10:26;;;;;;;8.02;4.20;;;;;;;3.92;99.03;101746.09;5057477;28;20469;-86
2021/10/16 02:12:52;;;;;;;7.80;4.07;;;;;;;3.91;98.78;101750.53;5061066;28;20070;-83
2021/10/16 02:15:17;;;;;;;9.68;4.75;;;;;;;3.88;98.98;101749.88;5064198;28;20136;-81
2021/10/16 02:17:43;;;;;;;8.27;3.92;;;;;;;3.83;98.75;101748.38;5054420;28;20440;-86
2021/10/16 02:20:09;;;;;;;5.78;3.85;;;;;;;3.83;98.87;101743.06;5062658;28;20106;-85
2021/10/16 02:22:34;;;;;;;9.95;3.95;;;;;;;3.82;99.16;101749.31;5051027;28;20037;-83
2021/10/16 02:24:59;;;;;;;7.63;3.55;;;;;;;3.81;99.04;101755.56;5041288;28;20091;-87
2021/10/16 02:27:25;;;;;;;8.50;4.22;;;;;;;3.79;99.17;101749.50;5055262;28;20037;-85
2021/10/16 02:29:50;;;;;;;7.25;4.03;;;;;;;3.76;98.43;101752.34;5058076;28;20037;-85
2021/10/16 02:32:15;;;;;;;7.85;3.78;;;;;;;3.74;98.75;101748.09;5060008;28;20125;-86
2021/10/16 02:34:41;;;;;;;8.95;3.90;;;;;;;3.72;98.73;101755.31;5060563;28;20051;-83
2021/10/16 02:37:06;;;;;;;11.77;4.07;;;;;;;3.69;98.77;101753.69;5062531;28;20358;-86
2021/10/16 02:39:33;;;;;;;7.47;4.25;;;;;;;3.69;98.79;101753.69;5054695;28;20114;-83
2021/10/16 02:41:59;;;;;;;9.10;4.10;;;;;;;3.68;98.50;101759.09;5055710;28;20505;-87
2021/10/16 02:44:27;;;;;;;8.73;4.28;;;;;;;3.65;98.74;101754.81;5063035;28;20048;-83
2021/10/16 02:46:53;;;;;;;8.48;4.35;;;;;;;3.63;98.81;101762.06;5059450;28;20040;-83
2021/10/16 02:49:18;;;;;;;8.80;3.85;;;;;;;3.61;98.29;101761.28;5055671;28;20043;-82
2021/10/16 02:51:44;;;;;;;11.43;4.57;;;;;;;3.56;98.71;101766.03;5043447;28;20028;-83
2021/10/16 02:54:10;;;;;;;6.97;4.00;;;;;;;3.54;98.54;101768.78;5054113;28;20041;-89
2021/10/16 02:56:35;;;;;;;7.07;4.18;;;;;;;3.51;98.33;101766.31;5041567;28;20634;-87
2021/10/16 02:59:01;;;;;;;8.75;4.15;;;;;;;3.50;98.51;101763.75;5039694;28;20048;-86
2021/10/16 03:01:26;;;;;;;8.10;4.18;;;;;;;3.48;98.80;101765.63;5047606;28;20394;-88
2021/10/16 03:03:52;;;;;;;8.57;4.55;;;;;;;3.47;98.69;101763.94;5031088;28;20430;-83
2021/10/16 03:06:17;;;;;;;8.65;4.18;;;;;;;3.47;98.94;101761.28;5030619;28;20042;-87
2021/10/16 03:08:43;;;;;;;6.85;4.57;;;;;;;3.46;98.93;101762.25;5047346;28;20401;-85
2021/10/16 03:11:08;;;;;;;10.68;4.60;;;;;;;3.44;98.97;101772.94;5061760;28;20528;-88
2021/10/16 03:13:35;;;;;;;11.70;4.85;;;;;;;3.42;98.95;101768.66;5059422;28;20045;-84
2021/10/16 03:16:01;;;;;;;9.40;4.72;;;;;;;3.38;98.79;101774.16;5073002;28;20037;-85
2021/10/16 03:18:27;;;;;;;8.70;4.47;;;;;;;3.34;98.52;101767.34;5056518;28;20049;-85
2021/10/16 03:20:52;;;;;;;8.98;4.70;;;;;;;3.34;98.91;101762.06;5037745;28;20041;-85
2021/10/16 03:23:18;;;;;;;12.00;4.63;;;;;;;3.32;99.16;101773.69;5018778;28;20320;-87
2021/10/16 03:25:43;;;;;;;8.35;4.75;;;;;;;3.32;99.40;101768.41;5036562;28;20037;-87
2021/10/16 03:28:09;;;;;;;8.80;5.00;;;;;;;3.32;99.42;101779.84;5028891;28;20132;-83
2021/10/16 03:30:34;;;;;;;10.25;4.95;;;;;;;3.31;99.13;101770.19;5037865;28;20144;-88
2021/10/16 03:32:59;;;;;;;8.60;4.45;;;;;;;3.31;99.38;101762.25;5034835;28;20091;-85
2021/10/16 03:35:25;;;;;;;9.32;4.68;;;;;;;3.32;99.15;101763.94;5046514;28;20098;-86
2021/10/16 03:37:50;;;;;;;8.32;4.45;;;;;;;3.33;99.56;101770.94;5040415;28;20067;-89
2021/10/16 03:40:16;;;;;;;10.48;5.20;;;;;;;3.33;99.48;101770.94;5051422;28;20037;-84
2021/10/16 03:42:41;;;;;;;8.95;4.78;;;;;;;3.34;99.64;101775.31;5034930;28;20485;-86
2021/10/16 03:45:07;;;;;;;10.85;6.13;;;;;;;3.35;100.00;101763.75;5032405;28;20490;-86
2021/10/16 03:47:33;;;;;;;10.35;5.72;;;;;;;3.37;100.00;101767.16;5039422;28;20524;-85
2021/10/16 03:49:59;;;;;;;10.45;5.78;;;;;;;3.38;100.00;101762.72;5031301;28;20466;-86
2021/10/16 03:52:24;;;;;;;15.68;7.72;;;;;;;3.41;100.00;101764.31;5033035;28;20076;-81
2021/10/16 03:54:49;;;;;;;18.80;9.15;;;;;;;3.43;100.00;101770.41;5043140;28;20037;-85
2021/10/16 03:57:15;;;;;;;19.13;9.50;;;;;;;3.45;100.00;101764.03;5038977;28;20596;-82
2021/10/16 03:59:42;;;;;;;20.83;9.80;;;;;;;3.48;100.00;101763.88;5049708;28;20040;-86
2021/10/16 04:02:08;;;;;;;21.50;9.55;;;;;;;3.51;100.00;101757.50;5032640;28;20045;-86
2021/10/16 04:04:34;;;;;;;17.63;9.07;;;;;;;3.54;100.00;101760.81;5037983;28;20033;-82
2021/10/16 04:06:59;;;;;;;15.98;8.93;;;;;;;3.55;100.00;101765.19;5041598;28;20496;-85
2021/10/16 04:09:24;;;;;;;20.42;9.65;;;;;;;3.59;100.00;101763.19;5039607;28;20040;-85
2021/10/16 04:11:50;;;;;;;17.92;8.85;;;;;;;3.63;100.00;101763.88;5053351;28;22157;-84
2021/10/16 04:14:15;;;;;;;14.98;8.48;;;;;;;3.65;100.00;101762.78;5063382;28;20433;-85
2021/10/16 04:16:40;;;;;;;17.48;8.68;;;;;;;3.70;100.00;101765.16;5058069;28;20040;-87
2021/10/16 04:19:06;;;;;;;13.02;7.18;;;;;;;3.74;100.00;101759.59;5048234;28;20558;-85
2021/10/16 04:21:31;;;;;;;13.18;7.22;;;;;;;3.78;100.00;101765.53;5062548;28;20119;-89
2021/10/16 04:23:57;;;;;;;16.00;7.88;;;;;;;3.82;100.00;101767.88;5042101;28;20033;-87
2021/10/16 04:26:22;;;;;;;15.77;7.97;;;;;;;3.87;100.00;101767.63;5055041;28;20508;-88
2021/10/16 04:28:48;;;;;;;10.98;6.82;;;;;;;3.90;100.00;101764.75;5061217;28;20126;-84
2021/10/16 04:31:13;;;;;;;12.15;7.00;;;;;;;3.92;100.00;101764.69;5059939;28;20103;-86
2021/10/16 04:33:38;;;;;;;12.15;6.88;;;;;;;3.95;100.00;101764.47;5065736;28;20036;-85
2021/10/16 04:36:04;;;;;;;14.63;7.97;;;;;;;3.94;100.00;101765.41;5063884;28;20039;-84
2021/10/16 04:38:29;;;;;;;11.80;7.22;;;;;;;3.96;100.00;101763.53;5062666;28;20048;-83
2021/10/16 04:40:55;;;;;;;16.13;7.15;;;;;;;3.97;100.00;101762.56;5065435;28;20044;-88
2021/10/16 04:43:21;;;;;;;14.27;6.75;;;;;;;3.99;100.00;101765.97;5064217;28;20137;-86
2021/10/16 04:45:46;;;;;;;13.30;6.78;;;;;;;4.00;100.00;101759.72;5060145;28;20037;-85
2021/10/16 04:48:13;;;;;;;12.60;6.75;;;;;;;4.01;100.00;101756.97;5062760;28;20111;-82
2021/10/16 04:50:38;;;;;;;17.05;6.68;;;;;;;4.05;100.00;101774.41;5062909;28;20032;-88
2021/10/16 04:53:04;;;;;;;12.95;5.95;;;;;;;4.04;100.00;101767.38;5039589;28;20052;-89
2021/10/16 04:55:29;;;;;;;10.93;5.53;;;;;;;4.09;100.00;101768.91;5035242;28;20490;-86
2021/10/16 04:57:54;;;;;;;11.23;6.80;;;;;;;4.12;100.00;101768.72;5040567;28;20060;-84
2021/10/16 05:00:20;;;;;;;9.57;5.75;;;;;;;4.17;100.00;101772.78;5035643;28;20063;-88
2021/10/16 05:02:46;;;;;;;10.43;6.18;;;;;;;4.21;100.00;101761.00;5028162;28;20044;-89
2021/10/16 05:05:11;;;;;;;10.98;6.28;;;;;;;4.24;100.00;101766.09;5038687;28;20043;-87
2021/10/16 05:07:36;;;;;;;14.18;6.57;;;;;;;4.27;100.00;101767.72;5039467;28;20056;-88
2021/10/16 05:10:03;;;;;;;11.43;6.53;;;;;;;4.29;100.00;101761.34;5042816;28;20044;-83
2021/10/16 05:12:28;;;;;;;13.05;6.32;;;;;;;4.34;100.00;101768.16;5041024;28;20045;-85
2021/10/16 05:14:54;;;;;;;14.38;6.57;;;;;;;4.37;100.00;101762.66;5059414;28;20055;-86
2021/10/16 05:17:19;;;;;;;11.85;6.43;;;;;;;4.42;100.00;101768.53;5064012;28;20041;-83
2021/10/16 05:19:45;;;;;;;12.98;6.35;;;;;;;4.42;100.00;101760.53;5063866;28;20405;-82
2021/10/16 05:22:10;;;;;;;12.10;6.80;;;;;;;4.45;100.00;101765.66;5055705;28;20049;-86
2021/10/16 05:24:36;;;;;;;12.30;6.57;;;;;;;4.49;100.00;101761.88;5041934;28;20045;-84
2021/10/16 05:27:02;;;;;;;12.20;6.85;;;;;;;4.53;100.00;101758.03;5039962;28;20041;-82
2021/10/16 05:29:27;;;;;;;15.45;7.63;;;;;;;4.60;100.00;101764.63;5042258;28;20049;-84
2021/10/16 05:31:53;;;;;;;10.52;7.32;;;;;;;4.63;100.00;101763.59;5043198;28;20040;-84
2021/10/16 05:34:19;;;;;;;15.10;7.05;;;;;;;4.66;100.00;101766.03;5043199;28;20073;-83
2021/10/16 05:36:44;;;;;;;12.68;7.93;;;;;;;4.70;100.00;101764.91;5028440;28;20048;-85
2021/10/16 05:39:10;;;;;;;13.77;7.70;;;;;;;4.72;100.00;101769.16;5028096;28;20501;-81
2021/10/16 05:41:35;;;;;;;13.23;7.85;;;;;;;4.73;100.00;101757.56;5040638;28;20324;-84
2021/10/16 05:44:01;;;;;;;16.92;8.30;;;;;;;4.79;100.00;101750.13;5062621;28;20043;-85
2021/10/16 05:46:26;;;;;;;16.13;8.45;;;;;;;4.79;100.00;101758.94;5061992;28;20040;-84
2021/10/16 05:48:51;;;;;;;16.33;8.25;;;;;;;4.82;100.00;101760.56;5047973;28;20568;-84
2021/10/16 05:51:17;;;;;;;18.52;8.90;;;;;;;4.79;100.00;101764.28;5065626;28;20099;-91
2021/10/16 05:53:42;;;;;;;14.90;7.90;;;;;;;4.82;100.00;101769.38;5059180;28;20169;-84
2021/10/16 05:56:08;;;;;;;19.73;9.65;;;;;;;4.88;100.00;101768.97;5059146;28;20136;-83
2021/10/16 05:58:36;;;;;;;14.85;9.60;;;;;;;4.93;100.00;101763.34;5065070;28;20072;-87
2021/10/16 06:01:02;;;;;;;21.20;10.55;;;;;;;4.95;100.00;101761.44;5050975;28;20611;-87
2021/10/16 06:03:31;;;;;;;21.77;10.70;;;;;;;4.96;100.00;101768.47;5064003;28;20070;-87
2021/10/16 06:05:58;;;;;;;16.87;9.77;;;;;;;4.98;100.00;101758.56;5054738;28;20043;-84
2021/10/16 06:08:24;;;;;;;20.00;10.40;;;;;;;5.02;100.00;101772.50;5062703;28;20295;-83
2021/10/16 06:10:49;;;;;;;21.85;11.50;;;;;;;5.06;100.00;101772.19;5061850;28;20044;-84
2021/10/16 06:13:15;;;;;;;23.30;11.13;;;;;;;5.09;100.00;101766.69;5017191;28;1085193;-84
2021/10/16 06:15:41;;;;;;;23.88;10.32;;;;;;;5.12;100.00;101766.47;5055603;28;20462;-86
2021/10/16 06:18:12;;;;;;;18.73;10.90;;;;;;;5.17;100.00;101771.44;5065904;28;20037;-86
2021/10/16 06:20:38;;;;;;;16.92;10.10;;;;;;;5.20;100.00;101768.56;5055384;28;20053;-89
2021/10/16 06:23:03;;;;;;;17.60;10.75;;;;;;;5.27;100.00;101779.69;5039406;28;20442;-83
2021/10/16 06:25:29;;;;;;;22.05;10.68;;;;;;;5.30;100.00;101771.47;5042829;28;20080;-85
2021/10/16 06:27:54;;;;;;;17.77;10.32;;;;;;;5.31;100.00;101768.69;5043362;28;20047;-85
2021/10/16 06:30:19;;;;;;;17.92;11.35;;;;;;;5.36;100.00;101779.03;5045241;28;20049;-89
2021/10/16 06:32:45;;;;;;;14.77;9.68;;;;;;;5.37;100.00;101783.38;5047223;28;20555;-82
2021/10/16 06:35:10;;;;;;;19.30;11.15;;;;;;;5.41;100.00;101777.75;5037937;28;20700;-88
2021/10/16 06:37:36;;;;;;;21.10;11.38;;;;;;;5.47;100.00;101776.47;5034636;28;20068;-85
2021/10/16 06:40:02;;;;;;;18.55;12.00;;;;;;;5.52;100.00;101784.13;5044510;28;20063;-87
2021/10/16 06:42:29;;;;;;;20.30;11.88;;;;;;;5.54;100.00;101785.72;5045775;28;20446;-84
2021/10/16 06:44:54;;;;;;;29.45;12.13;;;;;;;5.59;100.00;101790.75;5074780;28;20063;-88
2021/10/16 06:47:20;;;;;;;21.30;13.13;;;;;;;5.62;100.00;101780.72;5061841;28;20064;-84
2021/10/16 06:49:45;;;;;;;22.20;12.40;;;;;;;5.64;100.00;101776.16;5047359;28;20392;-88
2021/10/16 06:52:10;;;;;;;23.30;13.43;;;;;;;5.66;100.00;101792.00;5046711;28;20055;-85
2021/10/16 06:54:36;;;;;;;23.42;13.20;;;;;;;5.68;100.00;101789.25;5062504;28;20059;-86
2021/10/16 06:57:01;;;;;;;27.63;17.52;;;;;;;5.74;100.00;101786.13;5058665;28;20059;-89
2021/10/16 06:59:27;;;;;;;22.08;13.73;;;;;;;5.78;100.00;101784.94;5062332;28;20066;-82
2021/10/16 07:01:53;;;;;;;22.98;13.02;;;;;;;5.80;100.00;101783.88;5061680;28;20083;-87
2021/10/16 07:04:18;;;;;;;22.95;12.85;;;;;;;5.83;100.00;101783.66;5061923;28;20068;-84
2021/10/16 07:06:44;;;;;;;20.88;12.57;;;;;;;5.88;100.00;101781.53;5059262;28;20033;-84
2021/10/16 07:09:09;;;;;;;21.92;13.98;;;;;;;5.92;100.00;101783.97;5072640;28;20067;-86
2021/10/16 07:11:35;;;;;;;23.23;13.00;;;;;;;5.97;100.00;101790.72;5060771;28;20170;-91
2021/10/16 07:14:00;;;;;;;22.17;13.43;;;;;;;6.03;100.00;101792.09;5075407;28;20040;-85
2021/10/16 07:16:25;;;;;;;20.38;11.40;;;;;;;6.06;100.00;101786.53;5057578;28;20091;-83
2021/10/16 07:18:52;;;;;;;23.80;12.45;;;;;;;6.09;100.00;101789.81;5064643;28;20109;-84
2021/10/16 07:21:17;;;;;;;16.75;11.00;;;;;;;6.13;100.00;101790.47;5047388;28;20075;-87
2021/10/16 07:23:45;;;;;;;21.65;10.93;;;;;;;6.17;100.00;101796.41;5060679;28;20041;-85
2021/10/16 07:26:11;;;;;;;17.13;10.68;;;;;;;6.21;100.00;101797.88;5060351;28;20059;-90
2021/10/16 07:28:37;;;;;;;21.60;10.43;;;;;;;6.25;100.00;101802.91;5045832;28;20052;-85
2021/10/16 07:31:03;;;;;;;20.38;10.65;;;;;;;6.30;100.00;101807.88;5059966;28;20032;-83
2021/10/16 07:33:29;;;;;;;21.50;11.75;;;;;;;6.34;100.00;101814.72;5048901;28;20128;-86
2021/10/16 07:35:55;;;;;;;25.40;12.65;;;;;;;6.37;100.00;101811.81;5052048;28;20061;-86
2021/10/16 07:38:20;;;;;;;22.65;10.38;;;;;;;6.43;100.00;101818.50;5063257;28;20068;-87
2021/10/16 07:40:46;;;;;;;28.17;12.73;;;;;;;6.44;100.00;101813.06;5042620;28;20040;-87
2021/10/16 07:43:11;;;;;;;30.33;14.98;;;;;;;6.51;100.00;101811.66;5061076;28;20044;-84
2021/10/16 07:45:37;;;;;;;20.77;11.05;;;;;;;6.58;100.00;101813.88;5060113;28;20036;-85
2021/10/16 07:48:03;;;;;;;24.02;10.77;;;;;;;6.60;100.00;101812.78;5062423;28;20067;-85
2021/10/16 07:50:28;;;;;;;28.13;13.25;;;;;;;6.65;100.00;101815.13;5049122;28;20055;-86
2021/10/16 07:52:54;;;;;;;36.67;14.07;;;;;;;6.70;100.00;101810.28;5059781;28;20031;-89
2021/10/16 07:55:20;;;;;;;23.20;12.93;;;;;;;6.73;100.00;101818.94;5064393;28;20633;-85
2021/10/16 07:57:45;;;;;;;22.65;11.13;;;;;;;6.78;100.00;101813.22;5050976;28;20041;-85
2021/10/16 08:00:11;;;;;;;28.70;14.02;;;;;;;6.84;100.00;101815.44;5038019;28;20175;-88
2021/10/16 08:02:38;;;;;;;26.75;15.43;;;;;;;6.90;100.00;101817.63;5038167;28;20032;-86
2021/10/16 08:05:04;;;;;;;29.42;15.18;;;;;;;6.95;100.00;101823.47;5034355;28;20037;-85
2021/10/16 08:07:29;;;;;;;27.25;13.52;;;;;;;6.99;100.00;101816.09;5034096;28;20041;-85
2021/10/16 08:09:55;;;;;;;22.60;11.23;;;;;;;7.04;100.00;101821.94;5040771;28;20469;-84
2021/10/16 08:12:21;;;;;;;23.60;12.60;;;;;;;7.07;100.00;101824.38;5030241;28;20049;-85
2021/10/16 08:14:47;;;;;;;22.33;10.82;;;;;;;7.13;100.00;101825.72;5040596;28;20036;-84
2021/10/16 08:17:13;;;;;;;23.35;11.25;;;;;;;7.18;100.00;101815.56;5036713;28;20565;-83
2021/10/16 08:19:39;;;;;;;23.73;12.13;;;;;;;7.21;100.00;101815.31;5043839;28;20136;-85
2021/10/16 08:22:04;;;;;;;20.10;11.20;;;;;;;7.25;100.00;101808.78;5059832;28;20033;-86
2021/10/16 08:24:30;;;;;;;21.60;10.80;;;;;;;7.28;100.00;101811.22;5053307;28;20053;-88
2021/10/16 08:26:56;;;;;;;27.95;12.13;;;;;;;7.33;100.00;101817.03;5034365;28;20072;-85
2021/10/16 08:29:22;;;;;;;21.42;10.88;;;;;;;7.37;100.00;101815.84;5038489;28;20048;-84
2021/10/16 08:31:47;;;;;;;27.42;10.90;;;;;;;7.44;100.00;101822.41;5035671;28;20037;-89
2021/10/16 08:34:13;;;;;;;21.08;10.38;;;;;;;7.49;100.00;101823.88;5050498;28;20125;-85
2021/10/16 08:36:38;;;;;;;24.48;11.85;;;;;;;7.52;100.00;101823.66;5040814;28;20151;-84
2021/10/16 08:39:06;;;;;;;18.75;10.02;;;;;;;7.52;100.00;101829.84;5034460;28;20080;-85
2021/10/16 08:41:34;;;;;;;20.35;10.50;;;;;;;7.56;100.00;101833.09;5050190;28;20036;-82
2021/10/16 08:44:00;;;;;;;20.27;10.27;;;;;;;7.58;100.00;101834.69;5064176;28;20489;-86
2021/10/16 08:46:27;;;;;;;21.83;11.18;;;;;;;7.59;100.00;101832.88;5063230;28;20138;-84
2021/10/16 08:49:00;;;;;;;21.67;11.55;;;;;;;7.67;100.00;101841.13;5046197;28;20045;-85
2021/10/16 08:51:25;;;;;;;22.63;12.52;;;;;;;7.71;100.00;101833.72;5059370;28;20036;-88
2021/10/16 08:53:51;;;;;;;21.02;10.52;;;;;;;7.75;100.00;101841.41;5063455;28;20085;-86
2021/10/16 08:56:22;;;;;;;20.98;10.07;;;;;;;7.79;100.00;101840.16;5051551;28;20116;-84
2021/10/16 08:58:51;;;;;;;21.65;10.40;;;;;;;7.82;100.00;101831.06;5036519;28;20048;-87
2021/10/16 09:01:16;;;;;;;22.80;10.85;;;;;;;7.87;100.00;101828.88;5050462;28;20052;-86
2021/10/16 09:03:46;;;;;;;20.67;10.75;;;;;;;7.93;100.00;101824.88;5075674;28;20037;-85
2021/10/16 09:06:15;;;;;;;18.38;10.48;;;;;;;7.98;100.00;101836.06;5076230;28;20169;-83
2021/10/16 09:08:45;;;;;;;17.43;9.47;;;;;;;8.03;100.00;101833.88;5071781;28;20041;-85
2021/10/16 09:11:35;;;;;;;20.58;10.82;;;;;;;8.08;100.00;101831.66;5070390;28;20082;-84
2021/10/16 09:14:04;;;;;;;20.38;10.40;;;;;;;8.12;100.00;101838.50;5060779;28;20036;-87
2021/10/16 09:16:39;;;;;;;19.38;10.15;;;;;;;8.19;100.00;101833.50;5069281;28;20119;-83
2021/10/16 09:19:19;;;;;;;20.90;11.23;;;;;;;8.24;100.00;101836.66;5068178;28;20047;-85
2021/10/16 09:21:55;;;;;;;18.27;9.57;;;;;;;8.29;100.00;101834.47;5065422;28;21111;-85
2021/10/16 09:24:35;;;;;;;15.55;8.80;;;;;;;8.33;100.00;101828.72;5065472;28;20040;-84
2021/10/16 09:27:09;;;;;;;19.15;9.98;;;;;;;8.40;100.00;101831.81;5038772;28;20057;-89
2021/10/16 09:29:40;;;;;;;17.08;9.50;;;;;;;8.49;100.00;101830.19;5042945;28;20040;-82
2021/10/16 09:32:12;;;;;;;21.60;10.23;;;;;;;8.54;100.00;101827.97;5041542;28;20068;-87
2021/10/16 09:34:43;;;;;;;23.67;11.00;;;;;;;8.64;100.00;101831.59;5045389;28;20472;-84
2021/10/16 09:37:13;;;;;;;19.30;10.07;;;;;;;8.72;100.00;101825.63;5047799;28;20048;-85
2021/10/16 09:39:48;;;;;;;20.95;9.63;;;;;;;8.75;100.00;101828.91;5048367;28;20049;-88
2021/10/16 09:42:17;;;;;;;21.90;12.05;;;;;;;8.79;100.00;101822.31;5043499;28;20029;-87
2021/10/16 09:44:44;;;;;;;23.00;10.75;;;;;;;8.86;100.00;101827.13;5007449;28;20033;-86
2021/10/16 09:47:11;;;;;;;18.55;9.73;;;;;;;8.90;100.00;101833.97;5040107;28;20441;-86
2021/10/16 09:49:42;;;;;;;28.73;11.52;;;;;;;8.96;100.00;101833.44;5042526;28;20041;-84
2021/10/16 09:52:10;;;;;;;24.50;12.65;;;;;;;9.02;100.00;101828.41;5044260;28;20037;-83
2021/10/16 09:54:36;;;;;;;20.80;10.10;;;;;;;9.08;100.00;101835.09;5041692;28;20485;-88
2021/10/16 09:57:07;;;;;;;19.17;9.80;;;;;;;9.14;100.00;101837.25;5030858;28;20091;-86
2021/10/16 09:59:34;;;;;;;20.50;9.15;;;;;;;9.21;100.00;101835.75;5042821;28;20920;-84
2021/10/16 10:02:04;;;;;;;18.27;8.15;;;;;;;9.24;100.00;101840.84;5038193;28;20116;-86
2021/10/16 10:04:37;;;;;;;14.77;7.70;;;;;;;9.30;100.00;101841.31;5032647;28;20033;-88
2021/10/16 10:07:05;;;;;;;24.20;8.60;;;;;;;9.36;100.00;101843.47;5040385;28;20087;-85
2021/10/16 10:09:32;;;;;;;20.05;7.70;;;;;;;9.35;100.00;101847.09;5044523;28;20438;-83
2021/10/16 10:11:57;;;;;;;16.52;6.72;;;;;;;9.38;100.00;101844.16;5035351;28;20398;-87
2021/10/16 10:14:26;;;;;;;15.85;6.43;;;;;;;9.42;100.00;101840.25;5031063;28;20038;-87
2021/10/16 10:17:00;;;;;;;13.82;6.03;;;;;;;9.47;100.00;101838.03;5038419;28;20053;-83
2021/10/16 10:19:27;;;;;;;20.45;8.95;;;;;;;9.51;100.00;101838.63;5042772;28;20554;-88
2021/10/16 10:21:52;;;;;;;19.35;7.53;;;;;;;9.55;100.00;101835.56;5041891;28;20055;-84
2021/10/16 10:24:18;;;;;;;14.95;6.80;;;;;;;9.55;99.55;101838.25;5042698;28;20417;-87
2021/10/16 10:26:47;;;;;;;17.65;7.63;;;;;;;9.55;99.36;101840.91;5078362;28;20158;-86
2021/10/16 10:29:20;;;;;;;18.52;7.28;;;;;;;9.61;99.44;101843.06;5059218;28;20139;-86
2021/10/16 10:31:45;;;;;;;17.20;8.20;;;;;;;9.64;99.10;101842.81;5046232;28;20124;-84
2021/10/16 10:34:14;;;;;;;18.60;7.65;;;;;;;9.67;99.17;101842.53;5034375;28;20223;-82
2021/10/16 10:36:44;;;;;;;14.13;6.78;;;;;;;9.70;98.72;101841.41;5050454;28;20052;-88
2021/10/16 10:39:35;;;;;;;20.55;7.32;;;;;;;9.74;98.23;101831.28;5033056;28;20510;-85
2021/10/16 10:42:23;;;;;;;18.90;9.15;;;;;;;9.78;97.19;101840.72;5050882;28;20037;-88
2021/10/16 10:44:54;;;;;;;16.47;8.07;;;;;;;9.79;96.83;101837.09;5030762;28;20046;-85
2021/10/16 10:47:19;;;;;;;19.35;7.55;;;;;;;9.81;96.06;101832.41;5042273;28;20045;-86
2021/10/16 10:49:46;;;;;;;23.75;9.02;;;;;;;9.87;95.53;101840.81;5043089;28;20034;-83
2021/10/16 10:52:12;;;;;;;16.10;6.20;;;;;;;9.92;95.53;101832.34;5042421;28;20056;-84
2021/10/16 10:54:38;;;;;;;15.95;6.22;;;;;;;9.98;95.09;101830.94;5055334;28;20044;-82
2021/10/16 10:57:04;;;;;;;14.35;5.68;;;;;;;10.03;94.84;101826.88;5066772;28;20115;-85
2021/10/16 10:59:58;;;;;;;13.10;5.38;;;;;;;10.08;94.39;101830.00;5058914;28;20124;-84
2021/10/16 11:02:32;;;;;;;12.40;4.75;;;;;;;10.11;93.35;101829.72;5058847;28;20040;-83
2021/10/16 11:05:00;;;;;;;17.77;5.82;;;;;;;10.15;93.19;101828.47;5059328;28;20036;-88
2021/10/16 11:07:42;;;;;;;14.55;4.97;;;;;;;10.21;92.96;101821.72;5063459;28;20040;-84
2021/10/16 11:10:08;;;;;;;14.75;5.35;;;;;;;10.27;92.47;101820.34;5058095;28;20490;-84
2021/10/16 11:12:36;;;;;;;14.40;5.28;;;;;;;10.35;92.88;101815.16;5071854;28;20067;-84
2021/10/16 11:15:04;;;;;;;17.73;5.90;;;;;;;10.42;92.51;101807.41;5065024;28;20040;-86
2021/10/16 11:17:35;;;;;;;17.90;4.43;;;;;;;10.47;91.84;101819.44;5062943;28;20045;-85